createdAt,value
2019-06-26T00:01:34.304Z,24.80
2019-06-26T00:06:29.683Z,24.70
2019-06-26T00:11:23.570Z,24.70
2019-06-26T00:16:18.172Z,24.60
2019-06-26T00:21:12.167Z,24.60
2019-06-26T00:26:06.397Z,24.50
2019-06-26T00:31:00.912Z,24.50
2019-06-26T00:35:54.847Z,24.40
2019-06-26T00:40:49.498Z,24.30
2019-06-26T00:45:44.293Z,24.20
2019-06-26T00:50:38.952Z,24.10
2019-06-26T00:55:36.128Z,24.10
2019-06-26T01:00:34.708Z,24.00
2019-06-26T01:05:28.535Z,24.00
2019-06-26T01:10:22.972Z,24.00
2019-06-26T01:15:19.986Z,23.90
2019-06-26T01:20:14.015Z,23.80
2019-06-26T01:25:08.875Z,23.70
2019-06-26T01:30:03.781Z,23.70
2019-06-26T01:35:01.972Z,23.70
2019-06-26T01:39:55.771Z,23.70
2019-06-26T01:44:49.556Z,23.60
2019-06-26T01:49:44.046Z,23.50
2019-06-26T01:54:37.906Z,23.50
2019-06-26T01:59:31.684Z,23.40
2019-06-26T02:04:25.848Z,23.40
2019-06-26T02:09:20.083Z,23.40
2019-06-26T02:14:29.527Z,23.40
2019-06-26T02:19:12.948Z,23.30
2019-06-26T02:24:06.805Z,23.30
2019-06-26T02:29:03.367Z,23.20
2019-06-26T02:33:57.118Z,23.10
2019-06-26T02:38:51.789Z,23.10
2019-06-26T02:43:47.314Z,23.00
2019-06-26T02:48:44.186Z,23.00
2019-06-26T02:53:37.863Z,23.00
2019-06-26T02:58:31.917Z,22.90
2019-06-26T03:03:25.652Z,22.90
2019-06-26T03:08:19.847Z,22.80
2019-06-26T03:13:16.416Z,22.80
2019-06-26T03:18:11.553Z,22.80
2019-06-26T03:23:06.767Z,22.80
2019-06-26T03:28:00.913Z,22.90
2019-06-26T03:32:54.812Z,22.90
2019-06-26T03:37:49.614Z,23.00
2019-06-26T03:42:43.519Z,23.10
2019-06-26T03:47:38.286Z,23.20
2019-06-26T03:57:26.708Z,23.40
2019-06-26T04:02:20.579Z,23.60
2019-06-26T04:07:14.439Z,24.20
2019-06-26T04:12:08.379Z,24.70
2019-06-26T04:17:09.703Z,24.90
2019-06-26T04:22:03.609Z,25.50
2019-06-26T04:26:57.401Z,26.60
2019-06-26T04:31:51.179Z,27.90
2019-06-26T04:36:45.181Z,28.90
2019-06-26T04:41:39.278Z,30.40
2019-06-26T04:46:33.247Z,31.70
2019-06-26T04:51:27.265Z,32.40
2019-06-26T04:56:21.013Z,33.30
2019-06-26T05:01:14.911Z,34.00
2019-06-26T05:06:09.000Z,34.70
2019-06-26T05:11:02.864Z,35.00
2019-06-26T05:15:56.923Z,35.20
2019-06-26T05:20:50.890Z,35.80
2019-06-26T05:25:44.755Z,36.70
2019-06-26T05:30:40.735Z,37.30
2019-06-26T05:35:35.321Z,36.90
2019-06-26T05:40:29.365Z,38.10
2019-06-26T05:45:23.428Z,38.60
2019-06-26T05:50:39.629Z,37.60
2019-06-26T05:55:34.679Z,36.80
2019-06-26T06:00:28.527Z,36.10
2019-06-26T06:05:22.638Z,36.70
2019-06-26T06:10:17.352Z,38.00
2019-06-26T06:15:11.649Z,39.70
2019-06-26T06:20:07.079Z,41.10
2019-06-26T06:25:02.162Z,42.40
2019-06-26T06:30:01.044Z,43.30
2019-06-26T06:34:54.913Z,42.80
2019-06-26T06:39:48.984Z,43.50
2019-06-26T06:44:43.163Z,44.80
2019-06-26T06:49:45.728Z,45.30
2019-06-26T06:54:40.117Z,45.60
2019-06-26T06:59:34.363Z,45.30
2019-06-26T07:04:29.281Z,46.50
2019-06-26T07:09:23.992Z,47.10
2019-06-26T07:14:19.578Z,47.20
2019-06-26T07:19:15.281Z,48.50
2019-06-26T07:24:11.006Z,48.80
2019-06-26T07:29:04.910Z,49.40
2019-06-26T07:34:00.644Z,49.80
2019-06-26T07:38:55.535Z,51.00
2019-06-26T07:43:49.355Z,52.60
2019-06-26T07:48:43.951Z,53.50
2019-06-26T07:53:37.744Z,53.10
2019-06-26T07:58:34.382Z,53.70
2019-06-26T08:03:33.087Z,55.40
2019-06-26T08:08:30.555Z,56.40
2019-06-26T08:13:23.655Z,57.00
2019-06-26T08:18:23.612Z,57.00
2019-06-26T08:23:17.747Z,57.40
2019-06-26T08:28:14.316Z,57.50
2019-06-26T08:33:08.687Z,56.80
2019-06-26T08:42:57.314Z,56.70
2019-06-26T08:47:51.257Z,56.30
2019-06-26T08:52:45.201Z,56.80
2019-06-26T08:57:39.089Z,57.00
2019-06-26T09:12:20.161Z,58.30
2019-06-26T09:17:14.046Z,59.10
2019-06-26T09:22:16.020Z,59.90
2019-06-26T09:27:09.865Z,60.30
2019-06-26T09:32:06.842Z,59.90
2019-06-26T09:37:02.126Z,60.30
2019-06-26T09:41:58.737Z,60.70
2019-06-26T09:46:52.765Z,60.90
2019-06-26T09:51:46.714Z,60.80
2019-06-26T09:56:41.568Z,61.30
2019-06-26T10:01:35.521Z,61.70
2019-06-26T10:06:29.771Z,61.70
2019-06-26T10:11:23.712Z,61.50
2019-06-26T10:16:17.515Z,62.00
2019-06-26T10:21:11.383Z,62.30
2019-06-26T10:26:05.929Z,61.60
2019-06-26T10:30:59.790Z,61.70
2019-06-26T10:35:53.574Z,61.70
2019-06-26T10:40:47.438Z,61.20
2019-06-26T10:46:00.832Z,61.50
2019-06-26T10:50:58.387Z,61.20
2019-06-26T10:55:50.126Z,60.60
2019-06-26T11:00:43.938Z,60.10
2019-06-26T11:05:38.894Z,59.20
2019-06-26T11:10:32.880Z,56.80
2019-06-26T11:15:26.794Z,52.90
2019-06-26T11:20:20.806Z,48.60
2019-06-26T11:25:15.230Z,45.90
2019-06-26T11:30:11.209Z,44.20
2019-06-26T11:35:10.274Z,43.20
2019-06-26T11:40:09.777Z,42.70
2019-06-26T11:45:05.734Z,42.20
2019-06-26T11:50:00.492Z,41.70
2019-06-26T11:55:02.772Z,41.40
2019-06-26T11:59:51.120Z,41.00
2019-06-26T12:09:38.385Z,40.50
2019-06-26T12:14:35.319Z,40.40
2019-06-26T12:19:29.575Z,40.40
2019-06-26T12:24:26.317Z,40.50
2019-06-26T12:29:19.050Z,40.40
2019-06-26T12:34:17.258Z,40.40
2019-06-26T12:39:14.108Z,40.30
2019-06-26T12:44:07.877Z,40.10
2019-06-26T12:49:02.415Z,39.90
2019-06-26T12:53:58.680Z,39.80
2019-06-26T12:58:53.176Z,39.80
2019-06-26T13:03:47.025Z,39.80
2019-06-26T13:08:41.088Z,39.70
2019-06-26T13:13:35.850Z,39.70
2019-06-26T13:18:29.728Z,39.70
2019-06-26T13:23:23.716Z,39.70
2019-06-26T13:28:17.617Z,39.60
2019-06-26T13:33:11.318Z,39.70
2019-06-26T13:38:07.055Z,39.60
2019-06-26T13:43:01.551Z,39.60
2019-06-26T13:47:55.848Z,39.50
2019-06-26T13:52:50.764Z,39.30
2019-06-26T13:57:44.624Z,39.30
2019-06-26T14:02:38.865Z,39.20
2019-06-26T14:07:33.473Z,39.00
2019-06-26T14:12:27.308Z,38.80
2019-06-26T14:17:21.424Z,38.80
2019-06-26T14:22:15.213Z,38.70
2019-06-26T14:27:09.422Z,38.70
2019-06-26T14:32:03.435Z,38.60
2019-06-26T14:36:57.491Z,38.50
2019-06-26T14:41:51.756Z,38.40
2019-06-26T14:46:47.486Z,38.40
2019-06-26T14:51:47.104Z,38.30
2019-06-26T14:56:36.881Z,38.30
2019-06-26T15:01:30.660Z,38.20
2019-06-26T15:06:24.641Z,38.20
2019-06-26T15:11:18.353Z,38.10
2019-06-26T15:16:12.281Z,38.00
2019-06-26T15:21:06.234Z,37.90
2019-06-26T15:26:00.076Z,37.80
2019-06-26T15:30:55.032Z,37.80
2019-06-26T15:35:48.907Z,37.80
2019-06-26T15:40:43.585Z,37.60
2019-06-26T15:45:41.687Z,37.50
2019-06-26T15:50:35.625Z,37.40
2019-06-26T15:55:29.500Z,37.40
2019-06-26T16:00:23.377Z,37.30
2019-06-26T16:05:18.591Z,37.30
2019-06-26T16:10:13.372Z,37.20
2019-06-26T16:15:10.208Z,37.10
2019-06-26T16:20:05.712Z,37.00
2019-06-26T16:24:59.547Z,36.90
2019-06-26T16:29:53.391Z,36.80
2019-06-26T16:34:48.078Z,36.80
2019-06-26T16:39:42.475Z,36.70
2019-06-26T16:44:37.011Z,36.50
2019-06-26T16:49:33.161Z,36.40
2019-06-26T16:54:28.599Z,36.30
2019-06-26T16:59:22.479Z,36.20
2019-06-26T17:09:10.031Z,36.10
2019-06-26T17:14:03.982Z,35.90
2019-06-26T17:18:57.825Z,35.90
2019-06-26T17:23:53.622Z,35.70
2019-06-26T17:33:40.810Z,35.50
2019-06-26T17:38:37.774Z,35.40
2019-06-26T17:43:33.535Z,35.30
2019-06-26T17:48:27.705Z,35.20
2019-06-26T17:53:22.682Z,35.10
2019-06-26T17:58:16.490Z,35.00
2019-06-26T18:03:10.407Z,34.90
2019-06-26T18:08:07.356Z,34.80
2019-06-26T18:13:01.289Z,34.60
2019-06-26T18:17:55.115Z,34.50
2019-06-26T18:23:02.472Z,34.40
2019-06-26T18:27:44.582Z,34.20
2019-06-26T18:37:31.439Z,33.90
2019-06-26T18:42:25.402Z,33.80
2019-06-26T18:47:20.362Z,33.60
2019-06-26T18:52:14.255Z,33.40
2019-06-26T18:57:09.051Z,33.20
2019-06-26T19:02:03.062Z,33.10
2019-06-26T19:06:57.905Z,32.90
2019-06-26T19:11:51.667Z,32.70
2019-06-26T19:16:45.449Z,32.60
2019-06-26T19:21:43.193Z,32.50
2019-06-26T19:26:37.185Z,32.20
2019-06-26T19:31:32.006Z,32.00
2019-06-26T19:36:28.516Z,31.80
2019-06-26T19:41:22.627Z,31.70
2019-06-26T19:46:16.802Z,31.50
2019-06-26T19:51:10.676Z,31.40
2019-06-26T19:56:04.557Z,31.30
2019-06-26T20:01:01.789Z,31.10
2019-06-26T20:05:56.249Z,31.00
2019-06-26T20:10:50.744Z,30.90
2019-06-26T20:15:44.807Z,30.80
2019-06-26T20:20:38.571Z,30.70
2019-06-26T20:25:32.507Z,30.60
2019-06-26T20:30:29.328Z,30.50
2019-06-26T20:35:23.447Z,30.40
2019-06-26T20:40:18.272Z,30.30
2019-06-26T20:45:14.231Z,30.20
2019-06-26T20:50:11.352Z,30.10
2019-06-26T20:55:08.958Z,30.00
2019-06-26T21:00:02.857Z,29.90
2019-06-26T21:04:55.931Z,29.80
2019-06-26T21:09:48.905Z,29.70
2019-06-26T21:19:34.870Z,29.50
2019-06-26T21:24:28.665Z,29.40
2019-06-26T21:29:24.351Z,29.30
2019-06-26T21:34:20.759Z,29.20
2019-06-26T21:44:08.186Z,29.00
2019-06-26T21:49:04.604Z,28.90
2019-06-26T21:53:59.436Z,28.80
2019-06-26T21:58:53.211Z,28.80
2019-06-26T22:03:49.532Z,28.70
2019-06-26T22:08:43.882Z,28.70
2019-06-26T22:13:42.503Z,28.60
2019-06-26T22:18:36.211Z,28.50
2019-06-26T22:23:32.527Z,28.40
2019-06-26T22:28:26.444Z,28.30
2019-06-26T22:33:23.900Z,28.30
2019-06-26T22:38:17.349Z,28.20
2019-06-26T22:43:14.028Z,28.10
2019-06-26T22:48:14.183Z,28.00
2019-06-26T22:53:08.790Z,27.80
2019-06-26T22:58:05.997Z,27.70
2019-06-26T23:03:01.866Z,27.70
2019-06-26T23:07:56.641Z,27.60
2019-06-26T23:18:11.839Z,27.50
2019-06-26T23:23:13.205Z,27.60
2019-06-26T23:28:08.256Z,27.60
2019-06-26T23:33:05.943Z,27.70
2019-06-26T23:38:02.188Z,27.70
2019-06-26T23:42:57.604Z,27.70
2019-06-26T23:47:53.206Z,27.70
2019-06-26T23:52:49.241Z,27.60
2019-06-26T23:57:58.531Z,27.60
